Terminal Aerodrome Forecast
Issued by NWS

Home | Current Version | Previous Version | Text Only | Print | Product List | Glossary On
Versions: 1 2 3 4 5 6 7 8 9 10 11 12 13 14
000
FTUS42 KMLB 020500
TAFTIX
TAF
KTIX 020524Z 0206/0306 VRB03KT P6SM VCSH FEW020 FEW040 SCT060
      TEMPO 0210/0213 4SM BR SCT010
     FM021400 05005KT P6SM SCT120
     FM021800 05009KT P6SM SCT120 BKN250
     FM030000 04004KT P6SM FEW100 SCT250
      AMD NOT SKED TIL 021100=

USA.gov is the U.S. government's official web portal to all federal, state and local government web resources and services.